Time;durP1;ratioP1;P1;durP2;ratioP2;P2;SDS_P1;SDS_P2;PMS_P1;PMS_P2;Temp;Humidity;BMP_temperature;BMP_pressure;BME280_temperature;BME280_humidity;BME280_pressure;Samples;Min_cycle;Max_cycle;Signal;HPM_P1;HPM_P2
2022/05/21 00:00:17;;;;;;;18.08;4.93;;;;;;;;;;4966917;28;20127;-89
2022/05/21 00:02:43;;;;;;;12.85;5.40;;;;;;;;;;4966966;28;20041;-89
2022/05/21 00:05:10;;;;;;;10.73;4.43;;;;;;;;;;4966476;28;20113;-89
2022/05/21 00:07:36;;;;;;;14.65;4.80;;;;;;;;;;4966926;28;20030;-89
2022/05/21 00:10:02;;;;;;;17.08;5.13;;;;;;;;;;4968568;28;20129;-89
2022/05/21 00:12:28;;;;;;;12.20;5.38;;;;;;;;;;4979264;28;20029;-89
2022/05/21 00:14:55;;;;;;;16.42;4.88;;;;;;;;;;4968289;28;20038;-89
2022/05/21 00:17:21;;;;;;;13.05;5.20;;;;;;;;;;4965487;28;20030;-89
2022/05/21 00:19:47;;;;;;;14.63;4.53;;;;;;;;;;4965478;28;20117;-90
2022/05/21 00:22:13;;;;;;;23.02;5.20;;;;;;;;;;4966002;28;20034;-89
2022/05/21 00:24:39;;;;;;;20.50;5.60;;;;;;;;;;4968350;28;20114;-89
2022/05/21 00:27:07;;;;;;;13.50;4.53;;;;;;;;;;4961587;28;20234;-89
2022/05/21 00:29:33;;;;;;;17.27;6.05;;;;;;;;;;4967851;28;20034;-89
2022/05/21 00:31:59;;;;;;;20.50;6.53;;;;;;;;;;4960276;28;20431;-89
2022/05/21 00:34:25;;;;;;;17.02;6.45;;;;;;;;;;4966555;28;20096;-89
2022/05/21 00:36:51;;;;;;;18.52;6.30;;;;;;;;;;4966454;28;20053;-89
2022/05/21 00:39:17;;;;;;;28.17;6.93;;;;;;;;;;4969698;28;20038;-89
2022/05/21 00:41:44;;;;;;;21.15;7.07;;;;;;;;;;4967648;28;20083;-89
2022/05/21 00:44:10;;;;;;;10.25;4.70;;;;;;;;;;4969342;28;20081;-89
2022/05/21 00:46:38;;;;;;;18.27;7.80;;;;;;;;;;4977053;28;20038;-88
2022/05/21 00:49:05;;;;;;;22.02;8.00;;;;;;;;;;4958416;28;20491;-89
2022/05/21 00:51:33;;;;;;;26.20;7.85;;;;;;;;;;4982075;28;20482;-89
2022/05/21 00:54:00;;;;;;;29.20;8.77;;;;;;;;;;4951419;28;20275;-89
2022/05/21 00:56:28;;;;;;;23.27;7.82;;;;;;;;;;4985218;28;20489;-89
2022/05/21 01:01:41;;;;;;;27.00;8.30;;;;;;;;;;4984635;28;20036;-89
2022/05/21 01:04:07;;;;;;;26.70;8.30;;;;;;;;;;4966675;28;20027;-89
2022/05/21 01:06:34;;;;;;;31.27;9.48;;;;;;;;;;4979924;28;20506;-90
2022/05/21 01:09:00;;;;;;;29.33;8.93;;;;;;;;;;4962350;28;20034;-89
2022/05/21 01:11:26;;;;;;;24.27;10.13;;;;;;;;;;4982215;28;20034;-89
2022/05/21 01:13:53;;;;;;;27.65;10.60;;;;;;;;;;4962575;28;20058;-89
2022/05/21 01:16:19;;;;;;;26.42;11.60;;;;;;;;;;4965319;28;20050;-89
2022/05/21 01:18:45;;;;;;;30.02;9.75;;;;;;;;;;4964767;28;20026;-89
2022/05/21 01:21:11;;;;;;;36.30;10.55;;;;;;;;;;4963231;28;20113;-90
2022/05/21 01:23:40;;;;;;;33.70;12.05;;;;;;;;;;4984683;28;20105;-89
2022/05/21 01:26:12;;;;;;;28.17;12.10;;;;;;;;;;4966009;28;20489;-89
2022/05/21 01:28:38;;;;;;;24.60;10.45;;;;;;;;;;4982142;28;20453;-89
2022/05/21 01:31:04;;;;;;;25.08;11.20;;;;;;;;;;4964099;28;20078;-89
2022/05/21 01:33:32;;;;;;;32.50;13.05;;;;;;;;;;4967879;28;20564;-89
2022/05/21 01:35:59;;;;;;;42.30;11.75;;;;;;;;;;4981426;28;20571;-89
2022/05/21 01:38:26;;;;;;;21.90;8.75;;;;;;;;;;4972424;28;20030;-89
2022/05/21 01:40:52;;;;;;;32.95;12.05;;;;;;;;;;4968452;28;20466;-89
2022/05/21 01:46:03;;;;;;;32.47;12.52;;;;;;;;;;4993336;28;20073;-89
2022/05/21 01:48:30;;;;;;;21.30;9.23;;;;;;;;;;4985920;28;20047;-90
2022/05/21 01:50:56;;;;;;;31.98;12.88;;;;;;;;;;4986505;28;20045;-89
2022/05/21 01:53:23;;;;;;;36.00;12.27;;;;;;;;;;4972793;28;20121;-89
2022/05/21 01:55:50;;;;;;;28.42;11.73;;;;;;;;;;4984729;28;20030;-89
2022/05/21 01:58:16;;;;;;;32.90;14.93;;;;;;;;;;4970612;28;20035;-89
2022/05/21 02:00:42;;;;;;;38.60;13.82;;;;;;;;;;4970188;28;20474;-89
2022/05/21 02:03:09;;;;;;;34.70;14.90;;;;;;;;;;4970992;28;20042;-89
2022/05/21 02:05:36;;;;;;;36.50;15.88;;;;;;;;;;4969888;28;20027;-89
2022/05/21 02:08:02;;;;;;;42.97;15.35;;;;;;;;;;4961944;28;20402;-89
2022/05/21 02:10:28;;;;;;;36.38;15.48;;;;;;;;;;4968912;28;20027;-89
2022/05/21 02:12:54;;;;;;;21.13;8.50;;;;;;;;;;4964066;28;20474;-88
2022/05/21 02:15:20;;;;;;;32.22;11.07;;;;;;;;;;4971068;28;20055;-89
2022/05/21 02:17:46;;;;;;;32.78;12.85;;;;;;;;;;4970919;28;20027;-89
2022/05/21 02:20:12;;;;;;;46.78;16.25;;;;;;;;;;4987676;28;20041;-89
2022/05/21 02:22:39;;;;;;;16.55;8.27;;;;;;;;;;4965006;28;20088;-89
2022/05/21 02:25:05;;;;;;;31.00;13.60;;;;;;;;;;4970334;28;20068;-88
2022/05/21 02:27:31;;;;;;;36.95;14.88;;;;;;;;;;4965487;28;20034;-89
2022/05/21 02:29:57;;;;;;;32.45;12.93;;;;;;;;;;4967848;28;20089;-89
2022/05/21 02:32:23;;;;;;;35.78;13.38;;;;;;;;;;4965281;28;20114;-89
2022/05/21 02:34:49;;;;;;;41.05;16.98;;;;;;;;;;4969450;28;20647;-89
2022/05/21 02:40:00;;;;;;;36.95;15.68;;;;;;;;;;4982002;28;20449;-89
2022/05/21 02:42:45;;;;;;;40.33;18.25;;;;;;;;;;4963042;28;20541;-89
2022/05/21 02:45:13;;;;;;;51.50;19.92;;;;;;;;;;4969226;28;20054;-89
2022/05/21 02:47:54;;;;;;;48.88;19.65;;;;;;;;;;4969376;28;20051;-89
2022/05/21 02:50:32;;;;;;;49.20;19.80;;;;;;;;;;4985151;28;20149;-88
2022/05/21 02:52:59;;;;;;;38.47;14.43;;;;;;;;;;4964174;28;20129;-88
2022/05/21 02:55:25;;;;;;;41.03;18.17;;;;;;;;;;4970504;28;20037;-89
2022/05/21 02:57:51;;;;;;;65.88;19.45;;;;;;;;;;4970515;28;20410;-89
2022/05/21 03:00:19;;;;;;;56.65;18.58;;;;;;;;;;4962305;28;20086;-89
2022/05/21 03:02:45;;;;;;;49.45;19.20;;;;;;;;;;4964457;28;20034;-89
2022/05/21 03:05:11;;;;;;;31.58;12.00;;;;;;;;;;4968617;28;20093;-89
2022/05/21 03:07:41;;;;;;;38.28;16.15;;;;;;;;;;4968704;28;20026;-89
2022/05/21 03:10:23;;;;;;;52.00;17.95;;;;;;;;;;4964202;28;20035;-89
2022/05/21 03:12:58;;;;;;;46.47;16.38;;;;;;;;;;4968830;28;20088;-89
2022/05/21 03:15:27;;;;;;;46.10;15.65;;;;;;;;;;4963158;28;20030;-89
2022/05/21 03:17:53;;;;;;;39.03;14.88;;;;;;;;;;4967620;28;20039;-88
2022/05/21 03:20:20;;;;;;;29.95;12.52;;;;;;;;;;4983563;28;20106;-89
2022/05/21 03:22:46;;;;;;;20.27;7.15;;;;;;;;;;4986856;28;20681;-89
2022/05/21 03:25:13;;;;;;;34.25;10.63;;;;;;;;;;4965851;28;20030;-89
2022/05/21 03:27:40;;;;;;;33.13;8.85;;;;;;;;;;4967682;28;20074;-89
2022/05/21 03:30:07;;;;;;;32.10;9.63;;;;;;;;;;4981608;28;20548;-88
2022/05/21 03:32:33;;;;;;;34.80;8.52;;;;;;;;;;4965292;28;20494;-89
2022/05/21 03:34:59;;;;;;;29.20;8.38;;;;;;;;;;4981810;28;20660;-89
2022/05/21 03:37:25;;;;;;;28.70;8.75;;;;;;;;;;4968387;28;20022;-89
2022/05/21 03:39:51;;;;;;;22.70;5.72;;;;;;;;;;4964344;28;20109;-89
2022/05/21 03:42:19;;;;;;;34.95;7.88;;;;;;;;;;4985608;28;20038;-88
2022/05/21 03:44:46;;;;;;;30.25;7.07;;;;;;;;;;4965265;28;20034;-89
2022/05/21 03:47:12;;;;;;;30.33;6.03;;;;;;;;;;4963064;28;20524;-89
2022/05/21 03:49:38;;;;;;;22.17;6.40;;;;;;;;;;4957447;28;20031;-89
2022/05/21 03:52:06;;;;;;;34.88;6.88;;;;;;;;;;4968488;28;20483;-89
2022/05/21 03:54:32;;;;;;;35.50;7.22;;;;;;;;;;4965587;28;20023;-89
2022/05/21 03:57:01;;;;;;;22.15;5.22;;;;;;;;;;4967236;28;20397;-89
2022/05/21 03:59:27;;;;;;;22.38;5.03;;;;;;;;;;4986399;28;20053;-89
2022/05/21 04:01:53;;;;;;;33.17;7.05;;;;;;;;;;4965018;28;20053;-89
2022/05/21 04:04:19;;;;;;;24.38;6.00;;;;;;;;;;4962054;28;20034;-89
2022/05/21 04:06:45;;;;;;;34.35;6.35;;;;;;;;;;4967653;28;20446;-89
2022/05/21 04:09:11;;;;;;;26.35;5.80;;;;;;;;;;4960282;28;20085;-89
2022/05/21 04:11:37;;;;;;;17.40;5.97;;;;;;;;;;4968079;28;20729;-89
2022/05/21 04:14:04;;;;;;;35.88;6.50;;;;;;;;;;4963119;28;20482;-89
2022/05/21 04:16:30;;;;;;;36.00;6.35;;;;;;;;;;4984054;28;20026;-89
2022/05/21 04:18:56;;;;;;;24.90;5.10;;;;;;;;;;4966138;28;20027;-89
2022/05/21 04:21:23;;;;;;;24.27;5.65;;;;;;;;;;4985260;28;20118;-89
2022/05/21 04:23:49;;;;;;;20.23;5.10;;;;;;;;;;4961859;28;20034;-89
2022/05/21 04:26:15;;;;;;;32.30;5.60;;;;;;;;;;4954211;28;20038;-89
2022/05/21 04:28:41;;;;;;;24.50;4.18;;;;;;;;;;4965303;28;20036;-89
2022/05/21 04:31:07;;;;;;;26.85;5.00;;;;;;;;;;4985596;28;20022;-89
2022/05/21 04:33:33;;;;;;;22.33;3.97;;;;;;;;;;4961739;28;20518;-89
2022/05/21 04:36:18;;;;;;;27.05;4.95;;;;;;;;;;4967475;28;20058;-89
2022/05/21 04:38:44;;;;;;;25.02;4.50;;;;;;;;;;4958492;28;20422;-89
2022/05/21 04:41:10;;;;;;;17.45;4.53;;;;;;;;;;4967413;28;20080;-89
2022/05/21 04:43:36;;;;;;;21.20;4.63;;;;;;;;;;4960328;28;20035;-89
2022/05/21 04:46:02;;;;;;;17.90;4.07;;;;;;;;;;4984961;28;20035;-89
2022/05/21 04:48:28;;;;;;;14.18;3.85;;;;;;;;;;4985375;28;20050;-89
2022/05/21 04:50:58;;;;;;;14.45;3.83;;;;;;;;;;4964583;28;20049;-90
2022/05/21 04:53:24;;;;;;;12.50;3.40;;;;;;;;;;4962010;28;20030;-90
2022/05/21 04:55:50;;;;;;;14.40;3.67;;;;;;;;;;4966736;28;20034;-89
2022/05/21 04:58:16;;;;;;;15.15;4.43;;;;;;;;;;4982248;28;20218;-90
2022/05/21 05:00:42;;;;;;;17.23;3.58;;;;;;;;;;4965428;28;20041;-90
2022/05/21 05:03:15;;;;;;;15.13;4.03;;;;;;;;;;4969476;28;20038;-90
2022/05/21 05:05:42;;;;;;;21.85;3.60;;;;;;;;;;4960802;28;20054;-90
2022/05/21 05:08:08;;;;;;;21.58;4.05;;;;;;;;;;4983232;28;20039;-90
2022/05/21 05:10:36;;;;;;;15.35;3.70;;;;;;;;;;4959023;28;20046;-89
2022/05/21 05:13:08;;;;;;;20.25;3.95;;;;;;;;;;4988579;28;20034;-90
2022/05/21 05:15:34;;;;;;;23.60;3.53;;;;;;;;;;4961171;28;20041;-90
2022/05/21 05:18:01;;;;;;;18.42;3.55;;;;;;;;;;4962747;28;20030;-90
2022/05/21 05:20:27;;;;;;;17.08;3.45;;;;;;;;;;4970788;28;20127;-90
2022/05/21 05:22:53;;;;;;;18.15;3.15;;;;;;;;;;4981153;28;20054;-90
2022/05/21 05:25:20;;;;;;;16.08;3.63;;;;;;;;;;4990288;28;20033;-90
2022/05/21 05:27:47;;;;;;;8.60;2.63;;;;;;;;;;4956218;28;20026;-90
2022/05/21 05:30:13;;;;;;;8.02;3.03;;;;;;;;;;4967667;28;20038;-90
2022/05/21 05:32:40;;;;;;;15.30;3.30;;;;;;;;;;4969888;28;20058;-89
2022/05/21 05:35:06;;;;;;;18.38;3.67;;;;;;;;;;4971083;28;20034;-90
2022/05/21 05:37:32;;;;;;;12.45;3.17;;;;;;;;;;4967057;28;20066;-90
2022/05/21 05:39:58;;;;;;;17.88;3.17;;;;;;;;;;4970747;28;20320;-90
2022/05/21 05:42:24;;;;;;;12.52;2.78;;;;;;;;;;4971012;28;20030;-90
2022/05/21 05:44:50;;;;;;;11.98;3.42;;;;;;;;;;4962490;28;20041;-90
2022/05/21 05:47:16;;;;;;;18.65;3.63;;;;;;;;;;4969203;28;20133;-90
2022/05/21 05:49:42;;;;;;;17.23;4.05;;;;;;;;;;4973304;28;20132;-90
2022/05/21 05:52:09;;;;;;;11.40;3.05;;;;;;;;;;4988656;28;20037;-90
2022/05/21 05:54:36;;;;;;;16.30;3.45;;;;;;;;;;4986331;28;20077;-90
2022/05/21 05:57:03;;;;;;;21.02;3.53;;;;;;;;;;4967373;28;20069;-90
2022/05/21 06:04:58;;;;;;;9.43;3.55;;;;;;;;;;4985189;28;20096;-90
2022/05/21 06:07:24;;;;;;;12.38;3.38;;;;;;;;;;4965949;28;20086;-90
2022/05/21 06:09:50;;;;;;;14.75;3.50;;;;;;;;;;4969371;28;20023;-90
2022/05/21 06:12:16;;;;;;;19.38;3.60;;;;;;;;;;4966846;28;20482;-90
2022/05/21 06:14:45;;;;;;;23.58;3.70;;;;;;;;;;4959980;28;20034;-90
2022/05/21 06:17:11;;;;;;;11.95;3.05;;;;;;;;;;4968359;28;20073;-90
2022/05/21 06:19:37;;;;;;;11.07;2.88;;;;;;;;;;4987184;28;20041;-90
2022/05/21 06:22:04;;;;;;;16.58;3.15;;;;;;;;;;4991618;28;20030;-90
2022/05/21 06:24:34;;;;;;;22.52;3.45;;;;;;;;;;4964208;28;20505;-90
2022/05/21 06:27:00;;;;;;;14.32;3.15;;;;;;;;;;4961742;28;20026;-89
2022/05/21 06:29:26;;;;;;;16.00;3.97;;;;;;;;;;4983571;28;20542;-90
2022/05/21 06:31:52;;;;;;;13.32;2.42;;;;;;;;;;4961548;28;20174;-90
2022/05/21 06:34:18;;;;;;;16.20;3.15;;;;;;;;;;4986922;28;20046;-90
2022/05/21 06:36:44;;;;;;;12.02;2.58;;;;;;;;;;4964383;28;20475;-90
2022/05/21 06:39:10;;;;;;;9.43;2.17;;;;;;;;;;4972562;28;20027;-90
2022/05/21 06:41:36;;;;;;;17.05;3.97;;;;;;;;;;4963436;28;20050;-90
2022/05/21 06:44:02;;;;;;;12.05;2.88;;;;;;;;;;4971681;28;20046;-90
2022/05/21 06:46:28;;;;;;;14.50;2.53;;;;;;;;;;4970391;28;20058;-90
2022/05/21 06:48:54;;;;;;;9.15;2.42;;;;;;;;;;4967982;28;20082;-89
2022/05/21 06:51:20;;;;;;;25.00;3.05;;;;;;;;;;4969455;28;20113;-90
2022/05/21 06:53:46;;;;;;;9.40;2.13;;;;;;;;;;4961992;28;20577;-90
2022/05/21 06:56:14;;;;;;;18.38;3.63;;;;;;;;;;4968860;28;20117;-90
2022/05/21 06:58:40;;;;;;;12.50;2.78;;;;;;;;;;4983055;28;20026;-90
2022/05/21 07:01:07;;;;;;;14.70;2.70;;;;;;;;;;4967260;28;20022;-90
2022/05/21 07:03:33;;;;;;;19.23;2.92;;;;;;;;;;4966663;28;20023;-90
2022/05/21 07:08:44;;;;;;;14.52;2.88;;;;;;;;;;4977566;28;20053;-89
2022/05/21 07:11:10;;;;;;;13.45;3.03;;;;;;;;;;4960405;28;20038;-88
2022/05/21 07:13:36;;;;;;;11.50;2.90;;;;;;;;;;4981298;28;20038;-89
2022/05/21 07:16:02;;;;;;;14.80;3.75;;;;;;;;;;4962099;28;20034;-90
2022/05/21 07:18:28;;;;;;;11.25;3.55;;;;;;;;;;4985814;28;20079;-90
2022/05/21 07:20:55;;;;;;;20.38;2.95;;;;;;;;;;4966410;28;20043;-90
2022/05/21 07:23:21;;;;;;;15.90;2.95;;;;;;;;;;4961295;28;20125;-90
2022/05/21 07:25:48;;;;;;;15.40;3.17;;;;;;;;;;4967540;28;20496;-89
2022/05/21 07:28:15;;;;;;;10.73;2.75;;;;;;;;;;4983638;28;20437;-89
2022/05/21 07:30:42;;;;;;;12.80;2.90;;;;;;;;;;4978643;28;20030;-89
2022/05/21 07:33:10;;;;;;;6.82;1.98;;;;;;;;;;4980736;28;20038;-89
2022/05/21 07:35:37;;;;;;;14.40;2.30;;;;;;;;;;4967189;28;20089;-89
2022/05/21 07:38:07;;;;;;;11.63;2.72;;;;;;;;;;4965413;28;20035;-89
2022/05/21 07:40:33;;;;;;;14.02;2.78;;;;;;;;;;4964979;28;20704;-89
2022/05/21 07:42:59;;;;;;;17.20;3.67;;;;;;;;;;4966109;28;20104;-89
2022/05/21 07:45:25;;;;;;;11.23;2.83;;;;;;;;;;4985458;28;20518;-89
2022/05/21 07:47:51;;;;;;;12.95;2.88;;;;;;;;;;4966892;28;20112;-89
2022/05/21 07:50:20;;;;;;;12.23;2.85;;;;;;;;;;4983972;28;20035;-89
2022/05/21 07:52:46;;;;;;;9.80;2.67;;;;;;;;;;4955398;28;20042;-88
2022/05/21 07:55:13;;;;;;;15.52;2.85;;;;;;;;;;4978473;28;20026;-89
2022/05/21 07:57:40;;;;;;;11.00;2.72;;;;;;;;;;4981024;28;20022;-89
2022/05/21 08:00:07;;;;;;;7.30;2.40;;;;;;;;;;4966553;28;20398;-89
2022/05/21 08:02:33;;;;;;;13.63;2.45;;;;;;;;;;4967919;28;20578;-89
2022/05/21 08:05:00;;;;;;;11.23;2.13;;;;;;;;;;4966602;28;20113;-89
2022/05/21 08:07:26;;;;;;;17.80;2.83;;;;;;;;;;4968091;28;20031;-89
2022/05/21 08:09:52;;;;;;;10.48;2.30;;;;;;;;;;4969203;28;20033;-89
2022/05/21 08:12:18;;;;;;;10.25;2.00;;;;;;;;;;4958450;28;20069;-89
2022/05/21 08:14:45;;;;;;;6.82;1.92;;;;;;;;;;4968221;28;20114;-89
2022/05/21 08:17:11;;;;;;;16.15;2.47;;;;;;;;;;4967295;28;20050;-90
2022/05/21 08:19:37;;;;;;;12.57;2.00;;;;;;;;;;4966085;28;20537;-89
2022/05/21 08:27:40;;;;;;;12.57;2.30;;;;;;;;;;4984105;28;20142;-89
2022/05/21 08:30:09;;;;;;;13.38;2.20;;;;;;;;;;4963112;28;20070;-90
2022/05/21 08:32:35;;;;;;;12.77;2.72;;;;;;;;;;4957483;28;20018;-90
2022/05/21 08:35:02;;;;;;;8.45;1.67;;;;;;;;;;4969031;28;20057;-89
2022/05/21 08:37:28;;;;;;;14.77;2.50;;;;;;;;;;4980702;28;20074;-90
2022/05/21 08:39:54;;;;;;;13.07;2.70;;;;;;;;;;4963604;28;20067;-90
2022/05/21 08:42:26;;;;;;;12.73;2.85;;;;;;;;;;4961199;28;20033;-90
2022/05/21 08:44:58;;;;;;;9.10;2.15;;;;;;;;;;4970213;28;20034;-90
2022/05/21 08:47:30;;;;;;;7.40;2.65;;;;;;;;;;4964743;28;20745;-90
2022/05/21 08:50:03;;;;;;;24.55;3.13;;;;;;;;;;4966515;28;20125;-90
2022/05/21 08:52:45;;;;;;;15.88;2.80;;;;;;;;;;4963822;28;20049;-90
2022/05/21 08:55:15;;;;;;;13.50;2.45;;;;;;;;;;4967005;28;20041;-90
2022/05/21 08:57:48;;;;;;;13.50;2.75;;;;;;;;;;4958153;28;20114;-90
2022/05/21 09:00:35;;;;;;;11.93;3.05;;;;;;;;;;4966698;28;20041;-90
2022/05/21 09:03:01;;;;;;;7.18;2.38;;;;;;;;;;4985300;28;20037;-90
2022/05/21 09:05:28;;;;;;;8.05;2.00;;;;;;;;;;4970426;28;20030;-90
2022/05/21 09:08:12;;;;;;;8.18;2.75;;;;;;;;;;4964219;28;20034;-89
2022/05/21 09:10:54;;;;;;;8.75;2.42;;;;;;;;;;4959398;28;20065;-90
2022/05/21 09:13:33;;;;;;;17.15;2.53;;;;;;;;;;4973014;28;20031;-90
2022/05/21 09:18:44;;;;;;;14.50;2.97;;;;;;;;;;4988768;28;20050;-90
2022/05/21 09:21:16;;;;;;;16.77;2.47;;;;;;;;;;4980072;28;20038;-89
2022/05/21 09:23:51;;;;;;;9.00;2.47;;;;;;;;;;4970677;28;20104;-90
2022/05/21 09:26:18;;;;;;;8.95;2.55;;;;;;;;;;4981829;28;20026;-89
2022/05/21 09:28:48;;;;;;;11.05;2.30;;;;;;;;;;4967516;28;20073;-90
2022/05/21 09:31:21;;;;;;;6.80;1.63;;;;;;;;;;4962342;28;20481;-90
2022/05/21 09:33:47;;;;;;;11.88;2.38;;;;;;;;;;4960791;28;20093;-90
2022/05/21 09:36:22;;;;;;;9.77;2.45;;;;;;;;;;4954587;28;20627;-90
2022/05/21 09:38:52;;;;;;;20.45;2.83;;;;;;;;;;4987793;28;20521;-90
2022/05/21 09:41:27;;;;;;;5.20;2.00;;;;;;;;;;4957137;28;20101;-90
2022/05/21 09:46:40;;;;;;;12.55;2.47;;;;;;;;;;4986190;28;20096;-90
2022/05/21 09:49:23;;;;;;;7.00;2.00;;;;;;;;;;4965379;28;20050;-90
2022/05/21 09:52:10;;;;;;;15.80;2.60;;;;;;;;;;4968531;28;20388;-90
2022/05/21 09:54:46;;;;;;;8.88;2.40;;;;;;;;;;4969458;28;21666;-90
2022/05/21 09:57:11;;;;;;;;;;;;;;;;;;4967711;28;20082;-90
2022/05/21 09:59:40;;;;;;;13.20;2.45;;;;;;;;;;4965874;28;20361;-90
2022/05/21 10:02:22;;;;;;;9.27;1.73;;;;;;;;;;4959344;28;20105;-90
2022/05/21 10:04:56;;;;;;;10.68;2.28;;;;;;;;;;4963355;28;20478;-90
2022/05/21 10:13:00;;;;;;;11.00;2.05;;;;;;;;;;4983937;28;20053;-90
2022/05/21 10:15:29;;;;;;;15.52;1.58;;;;;;;;;;4963336;28;20035;-90
2022/05/21 10:18:16;;;;;;;9.73;2.20;;;;;;;;;;4964744;28;20030;-90
2022/05/21 10:20:42;;;;;;;;;;;;;;;;;;4956595;28;20402;-90
2022/05/21 10:23:34;;;;;;;9.05;1.90;;;;;;;;;;4984292;28;19918;-90
2022/05/21 10:26:12;;;;;;;10.75;1.77;;;;;;;;;;4962785;28;20708;-90
2022/05/21 10:28:58;;;;;;;12.73;2.22;;;;;;;;;;4987693;28;20104;-90
2022/05/21 10:31:29;;;;;;;6.17;1.70;;;;;;;;;;4970693;28;20030;-90
2022/05/21 10:34:14;;;;;;;7.28;2.50;;;;;;;;;;4987584;28;20325;-90
2022/05/21 10:36:40;;;;;;;14.00;2.65;;;;;;;;;;4971143;28;20026;-90
2022/05/21 10:39:29;;;;;;;11.18;2.25;;;;;;;;;;4988706;28;20080;-90
2022/05/21 10:42:01;;;;;;;12.93;2.30;;;;;;;;;;4947576;28;20078;-90
2022/05/21 10:44:38;;;;;;;10.48;2.63;;;;;;;;;;4971079;28;20131;-90
2022/05/21 10:47:04;;;;;;;9.75;2.10;;;;;;;;;;4971111;28;20578;-90
2022/05/21 10:49:39;;;;;;;6.65;2.03;;;;;;;;;;4968569;28;20050;-90
2022/05/21 10:52:23;;;;;;;6.50;2.33;;;;;;;;;;4982694;28;20478;-90
2022/05/21 10:54:49;;;;;;;6.82;2.33;;;;;;;;;;4968770;28;20734;-90
2022/05/21 10:57:33;;;;;;;7.70;2.67;;;;;;;;;;4970784;28;20113;-90
2022/05/21 11:00:10;;;;;;;9.35;2.30;;;;;;;;;;4966589;28;20263;-90
2022/05/21 11:02:39;;;;;;;10.23;1.63;;;;;;;;;;4987637;28;20022;-90
2022/05/21 11:05:21;;;;;;;10.85;2.35;;;;;;;;;;4982941;28;20546;-90
2022/05/21 11:07:49;;;;;;;11.32;2.10;;;;;;;;;;4967675;28;20092;-90
2022/05/21 11:10:28;;;;;;;8.95;2.15;;;;;;;;;;4967803;28;20125;-91
2022/05/21 11:13:00;;;;;;;6.53;1.67;;;;;;;;;;4969226;28;20562;-90
2022/05/21 11:15:32;;;;;;;9.43;1.67;;;;;;;;;;4968042;28;20045;-90
2022/05/21 11:18:07;;;;;;;15.10;1.67;;;;;;;;;;4978559;28;20035;-90
2022/05/21 11:20:37;;;;;;;7.65;1.60;;;;;;;;;;4990625;28;20030;-90
2022/05/21 11:23:09;;;;;;;7.22;1.92;;;;;;;;;;4989755;28;20149;-90
2022/05/21 11:25:39;;;;;;;8.45;2.05;;;;;;;;;;4969230;28;20042;-89
2022/05/21 11:28:14;;;;;;;5.30;2.15;;;;;;;;;;4972306;28;20042;-90
2022/05/21 11:30:41;;;;;;;11.02;1.80;;;;;;;;;;4969502;28;20037;-90
2022/05/21 11:38:51;;;;;;;8.93;1.77;;;;;;;;;;4985236;28;20545;-90
2022/05/21 11:41:30;;;;;;;6.47;1.73;;;;;;;;;;4966151;28;20030;-91
2022/05/21 11:47:07;;;;;;;7.47;1.95;;;;;;;;;;4981170;28;20045;-90
2022/05/21 11:49:39;;;;;;;20.55;3.03;;;;;;;;;;4960790;28;20065;-90
2022/05/21 11:52:24;;;;;;;5.00;1.65;;;;;;;;;;4982540;28;20061;-88
2022/05/21 11:54:50;;;;;;;7.18;2.03;;;;;;;;;;4979565;28;20034;-90
2022/05/21 11:57:36;;;;;;;6.88;1.67;;;;;;;;;;4965164;28;20093;-90
2022/05/21 12:00:06;;;;;;;7.72;1.77;;;;;;;;;;4960566;28;20034;-90
2022/05/21 12:02:41;;;;;;;13.93;2.53;;;;;;;;;;4985262;28;20044;-90
2022/05/21 12:05:08;;;;;;;10.18;2.95;;;;;;;;;;4967849;28;20121;-90
2022/05/21 12:07:44;;;;;;;5.88;1.98;;;;;;;;;;4974691;28;20030;-90
2022/05/21 12:10:27;;;;;;;6.35;1.98;;;;;;;;;;4968171;28;20039;-90
2022/05/21 12:12:59;;;;;;;9.57;2.47;;;;;;;;;;4975532;28;20445;-90
2022/05/21 12:15:39;;;;;;;7.03;1.73;;;;;;;;;;4991237;28;20036;-90
2022/05/21 12:18:09;;;;;;;11.73;2.00;;;;;;;;;;4989094;28;20068;-90
2022/05/21 12:20:51;;;;;;;5.68;1.63;;;;;;;;;;4958402;28;20134;-90
2022/05/21 12:23:27;;;;;;;7.72;2.10;;;;;;;;;;4970820;28;20117;-90
2022/05/21 12:25:54;;;;;;;10.05;2.17;;;;;;;;;;4972032;28;20030;-90
2022/05/21 12:28:21;;;;;;;5.70;2.05;;;;;;;;;;4969398;28;20085;-90
2022/05/21 12:30:48;;;;;;;7.85;2.47;;;;;;;;;;4966343;28;20041;-90
2022/05/21 12:33:24;;;;;;;9.05;2.00;;;;;;;;;;4972789;28;20611;-90
2022/05/21 12:35:56;;;;;;;7.60;1.75;;;;;;;;;;4968287;28;20042;-90
2022/05/21 12:38:37;;;;;;;7.28;1.77;;;;;;;;;;4982115;28;20026;-90
2022/05/21 12:41:24;;;;;;;5.32;1.85;;;;;;;;;;4972459;28;20026;-90
2022/05/21 12:43:52;;;;;;;6.07;1.33;;;;;;;;;;4980295;28;20121;-90
2022/05/21 12:46:19;;;;;;;5.80;1.77;;;;;;;;;;4969230;28;20430;-89
2022/05/21 12:48:53;;;;;;;13.15;1.27;;;;;;;;;;4986448;28;20031;-89
2022/05/21 12:51:38;;;;;;;3.97;1.50;;;;;;;;;;4972762;28;20631;-90
2022/05/21 12:54:07;;;;;;;8.90;2.10;;;;;;;;;;4972941;28;20057;-90
2022/05/21 12:56:37;;;;;;;6.20;1.33;;;;;;;;;;4985581;28;20105;-90
2022/05/21 12:59:08;;;;;;;8.63;1.65;;;;;;;;;;4965247;28;20050;-90
2022/05/21 13:01:35;;;;;;;5.25;1.80;;;;;;;;;;4968633;28;20034;-90
2022/05/21 13:04:02;;;;;;;9.93;2.60;;;;;;;;;;4984777;28;20478;-90
2022/05/21 13:06:31;;;;;;;4.97;1.45;;;;;;;;;;4968385;28;20751;-90
2022/05/21 13:08:58;;;;;;;5.30;1.60;;;;;;;;;;4965584;28;20038;-90
2022/05/21 13:11:31;;;;;;;5.90;1.92;;;;;;;;;;4969224;28;20043;-90
2022/05/21 13:14:03;;;;;;;9.82;1.40;;;;;;;;;;4967859;28;21022;-89
2022/05/21 13:16:29;;;;;;;6.65;2.05;;;;;;;;;;4966445;28;20034;-90
2022/05/21 13:19:15;;;;;;;6.03;2.33;;;;;;;;;;4985682;28;20039;-90
2022/05/21 13:21:45;;;;;;;6.93;1.80;;;;;;;;;;4968704;28;20035;-90
2022/05/21 13:24:17;;;;;;;3.17;1.42;;;;;;;;;;4963219;28;20613;-90
2022/05/21 13:26:43;;;;;;;8.38;1.70;;;;;;;;;;4968810;28;20035;-90
2022/05/21 13:29:15;;;;;;;7.88;1.67;;;;;;;;;;4976271;28;20043;-90
2022/05/21 13:31:41;;;;;;;3.38;1.40;;;;;;;;;;4973490;28;20573;-90
2022/05/21 13:34:07;;;;;;;5.90;1.38;;;;;;;;;;4990772;28;20085;-90
2022/05/21 13:36:34;;;;;;;6.88;1.60;;;;;;;;;;4965039;28;20042;-90
2022/05/21 13:39:01;;;;;;;5.45;1.55;;;;;;;;;;4964287;28;20399;-90
2022/05/21 13:41:27;;;;;;;7.25;2.42;;;;;;;;;;4965627;28;20054;-89
2022/05/21 13:43:54;;;;;;;7.22;2.60;;;;;;;;;;4966519;28;20058;-90
2022/05/21 13:46:24;;;;;;;6.43;1.70;;;;;;;;;;4973384;28;20509;-90
2022/05/21 13:48:55;;;;;;;7.55;1.45;;;;;;;;;;4972069;28;20034;-90
2022/05/21 13:51:22;;;;;;;4.25;1.80;;;;;;;;;;4970606;28;20038;-90
2022/05/21 13:53:50;;;;;;;7.13;1.67;;;;;;;;;;4966944;28;20034;-90
2022/05/21 13:56:30;;;;;;;4.65;1.75;;;;;;;;;;4967918;28;20360;-90
2022/05/21 13:59:26;;;;;;;5.20;1.35;;;;;;;;;;4963306;28;20030;-90
2022/05/21 14:01:57;;;;;;;8.13;1.85;;;;;;;;;;4956514;28;20045;-90
2022/05/21 14:04:34;;;;;;;6.70;2.13;;;;;;;;;;4972188;28;20379;-89
2022/05/21 14:07:01;;;;;;;7.05;1.75;;;;;;;;;;4987370;28;20524;-89
2022/05/21 14:09:29;;;;;;;9.57;1.85;;;;;;;;;;4992543;28;20497;-90
2022/05/21 14:12:00;;;;;;;10.20;2.40;;;;;;;;;;4967180;28;20394;-90
2022/05/21 14:14:29;;;;;;;11.55;2.13;;;;;;;;;;4971900;28;20525;-89
2022/05/21 14:17:10;;;;;;;4.40;1.70;;;;;;;;;;4970648;28;20049;-89
2022/05/21 14:19:36;;;;;;;9.63;2.15;;;;;;;;;;4968706;28;20482;-89
2022/05/21 14:22:13;;;;;;;10.23;2.50;;;;;;;;;;4975094;28;20557;-90
2022/05/21 14:24:41;;;;;;;8.57;1.83;;;;;;;;;;4968447;28;20181;-89
2022/05/21 14:27:19;;;;;;;9.38;2.03;;;;;;;;;;4969722;28;20054;-89
2022/05/21 14:29:58;;;;;;;6.68;1.85;;;;;;;;;;4984458;28;20457;-89
2022/05/21 14:32:29;;;;;;;9.75;1.95;;;;;;;;;;4977617;28;20085;-89
2022/05/21 14:35:15;;;;;;;9.40;2.10;;;;;;;;;;4968578;28;20053;-90
2022/05/21 14:37:42;;;;;;;5.65;1.38;;;;;;;;;;4983103;28;20036;-89
2022/05/21 14:40:10;;;;;;;13.35;2.30;;;;;;;;;;4968948;28;20031;-89
2022/05/21 14:42:36;;;;;;;17.45;2.42;;;;;;;;;;4969679;28;20022;-89
2022/05/21 14:45:08;;;;;;;10.50;2.00;;;;;;;;;;4967064;28;20046;-89
2022/05/21 14:47:52;;;;;;;12.20;2.03;;;;;;;;;;4989121;28;20042;-89
2022/05/21 14:53:11;;;;;;;8.80;2.20;;;;;;;;;;4987826;28;20065;-89
2022/05/21 14:55:37;;;;;;;17.02;2.33;;;;;;;;;;4967494;28;20046;-90
2022/05/21 14:58:04;;;;;;;7.43;1.58;;;;;;;;;;4971172;28;20030;-89
2022/05/21 15:00:31;;;;;;;10.18;1.92;;;;;;;;;;4968925;28;20041;-89
2022/05/21 15:02:57;;;;;;;9.90;2.00;;;;;;;;;;4985858;28;20019;-89
2022/05/21 15:05:24;;;;;;;6.07;1.60;;;;;;;;;;4982708;28;20026;-89
2022/05/21 15:07:54;;;;;;;12.23;2.50;;;;;;;;;;4969306;28;21731;-89
2022/05/21 15:10:20;;;;;;;8.10;2.10;;;;;;;;;;4973415;28;20038;-89
2022/05/21 15:12:47;;;;;;;12.77;2.22;;;;;;;;;;4972918;28;20595;-89
2022/05/21 15:15:14;;;;;;;6.93;2.10;;;;;;;;;;4969391;28;20027;-89
2022/05/21 15:17:41;;;;;;;19.65;3.60;;;;;;;;;;4971729;28;20080;-89
2022/05/21 15:20:10;;;;;;;12.88;3.63;;;;;;;;;;4969383;28;20421;-89
2022/05/21 15:22:37;;;;;;;9.75;2.47;;;;;;;;;;4969697;28;20048;-89
2022/05/21 15:25:12;;;;;;;9.57;2.47;;;;;;;;;;4967483;28;20058;-89
2022/05/21 15:27:38;;;;;;;10.95;2.47;;;;;;;;;;4970107;28;20468;-89
2022/05/21 15:30:06;;;;;;;7.10;1.95;;;;;;;;;;4972848;28;20121;-89